sensor_id;sensor_type;location;lat;lon;timestamp;P1;durP1;ratioP1;P2;durP2;ratioP2
74344;SDS011;62776;50.518;6.732;2024-02-15T00:00:56;1.50;;;1.40;;
74344;SDS011;62776;50.518;6.732;2024-02-15T00:03:45;1.92;;;1.05;;
74344;SDS011;62776;50.518;6.732;2024-02-15T00:06:33;2.15;;;1.40;;
74344;SDS011;62776;50.518;6.732;2024-02-15T00:09:21;2.25;;;1.73;;
74344;SDS011;62776;50.518;6.732;2024-02-15T00:12:07;1.92;;;1.83;;
74344;SDS011;62776;50.518;6.732;2024-02-15T00:14:53;1.70;;;1.15;;
74344;SDS011;62776;50.518;6.732;2024-02-15T00:17:43;1.35;;;1.25;;
74344;SDS011;62776;50.518;6.732;2024-02-15T00:20:30;1.50;;;1.40;;
74344;SDS011;62776;50.518;6.732;2024-02-15T00:23:18;1.52;;;1.27;;
74344;SDS011;62776;50.518;6.732;2024-02-15T00:26:05;1.70;;;1.60;;
74344;SDS011;62776;50.518;6.732;2024-02-15T00:28:51;1.48;;;1.38;;
74344;SDS011;62776;50.518;6.732;2024-02-15T00:31:40;1.77;;;1.30;;
74344;SDS011;62776;50.518;6.732;2024-02-15T00:34:27;1.50;;;1.30;;
74344;SDS011;62776;50.518;6.732;2024-02-15T00:37:13;1.33;;;1.13;;
74344;SDS011;62776;50.518;6.732;2024-02-15T00:40:15;1.95;;;1.27;;
74344;SDS011;62776;50.518;6.732;2024-02-15T00:43:01;1.30;;;1.20;;
74344;SDS011;62776;50.518;6.732;2024-02-15T00:45:47;1.73;;;1.27;;
74344;SDS011;62776;50.518;6.732;2024-02-15T00:48:33;0.98;;;0.90;;
74344;SDS011;62776;50.518;6.732;2024-02-15T00:51:20;2.00;;;1.35;;
74344;SDS011;62776;50.518;6.732;2024-02-15T00:54:07;1.15;;;1.10;;
74344;SDS011;62776;50.518;6.732;2024-02-15T00:56:54;1.27;;;1.15;;
74344;SDS011;62776;50.518;6.732;2024-02-15T00:59:43;1.10;;;1.10;;
74344;SDS011;62776;50.518;6.732;2024-02-15T01:02:29;1.95;;;1.02;;
74344;SDS011;62776;50.518;6.732;2024-02-15T01:05:16;1.00;;;1.00;;
74344;SDS011;62776;50.518;6.732;2024-02-15T01:08:04;1.35;;;1.25;;
74344;SDS011;62776;50.518;6.732;2024-02-15T01:10:51;1.10;;;0.90;;
74344;SDS011;62776;50.518;6.732;2024-02-15T01:13:40;0.80;;;0.80;;
74344;SDS011;62776;50.518;6.732;2024-02-15T01:16:26;1.02;;;1.02;;
74344;SDS011;62776;50.518;6.732;2024-02-15T01:19:12;1.85;;;0.88;;
74344;SDS011;62776;50.518;6.732;2024-02-15T01:21:58;1.20;;;1.10;;
74344;SDS011;62776;50.518;6.732;2024-02-15T01:24:46;0.75;;;0.73;;
74344;SDS011;62776;50.518;6.732;2024-02-15T01:27:32;0.90;;;0.90;;
74344;SDS011;62776;50.518;6.732;2024-02-15T01:30:19;1.20;;;1.10;;
74344;SDS011;62776;50.518;6.732;2024-02-15T01:33:07;0.82;;;0.82;;
74344;SDS011;62776;50.518;6.732;2024-02-15T01:35:53;0.85;;;0.85;;
74344;SDS011;62776;50.518;6.732;2024-02-15T01:38:41;1.48;;;0.90;;
74344;SDS011;62776;50.518;6.732;2024-02-15T01:41:28;1.20;;;1.10;;
74344;SDS011;62776;50.518;6.732;2024-02-15T01:44:14;1.63;;;1.17;;
74344;SDS011;62776;50.518;6.732;2024-02-15T01:47:00;0.85;;;0.85;;
74344;SDS011;62776;50.518;6.732;2024-02-15T01:49:48;1.13;;;0.90;;
74344;SDS011;62776;50.518;6.732;2024-02-15T01:52:35;1.25;;;1.00;;
74344;SDS011;62776;50.518;6.732;2024-02-15T01:55:24;1.05;;;0.88;;
74344;SDS011;62776;50.518;6.732;2024-02-15T01:58:10;0.90;;;0.90;;
74344;SDS011;62776;50.518;6.732;2024-02-15T02:00:56;1.58;;;1.02;;
74344;SDS011;62776;50.518;6.732;2024-02-15T02:03:56;1.20;;;1.10;;
74344;SDS011;62776;50.518;6.732;2024-02-15T02:06:43;1.23;;;1.10;;
74344;SDS011;62776;50.518;6.732;2024-02-15T02:09:29;3.45;;;1.10;;
74344;SDS011;62776;50.518;6.732;2024-02-15T02:12:16;2.58;;;1.60;;
74344;SDS011;62776;50.518;6.732;2024-02-15T02:15:03;1.30;;;1.20;;
74344;SDS011;62776;50.518;6.732;2024-02-15T02:17:51;1.40;;;1.30;;
74344;SDS011;62776;50.518;6.732;2024-02-15T02:20:37;2.47;;;1.30;;
74344;SDS011;62776;50.518;6.732;2024-02-15T02:23:25;2.20;;;1.60;;
74344;SDS011;62776;50.518;6.732;2024-02-15T02:26:14;1.92;;;1.52;;
74344;SDS011;62776;50.518;6.732;2024-02-15T02:29:01;1.65;;;1.55;;
74344;SDS011;62776;50.518;6.732;2024-02-15T02:31:50;1.85;;;1.50;;
74344;SDS011;62776;50.518;6.732;2024-02-15T02:34:36;2.40;;;1.48;;
74344;SDS011;62776;50.518;6.732;2024-02-15T02:37:23;2.00;;;1.35;;
74344;SDS011;62776;50.518;6.732;2024-02-15T02:40:09;2.00;;;1.80;;
74344;SDS011;62776;50.518;6.732;2024-02-15T02:42:59;1.60;;;1.50;;
74344;SDS011;62776;50.518;6.732;2024-02-15T02:45:45;3.50;;;2.47;;
74344;SDS011;62776;50.518;6.732;2024-02-15T02:48:33;3.35;;;2.53;;
74344;SDS011;62776;50.518;6.732;2024-02-15T02:51:19;3.25;;;2.05;;
74344;SDS011;62776;50.518;6.732;2024-02-15T02:54:05;2.33;;;1.77;;
74344;SDS011;62776;50.518;6.732;2024-02-15T02:56:52;2.63;;;1.50;;
74344;SDS011;62776;50.518;6.732;2024-02-15T02:59:38;3.88;;;1.42;;
74344;SDS011;62776;50.518;6.732;2024-02-15T03:02:25;5.13;;;2.22;;
74344;SDS011;62776;50.518;6.732;2024-02-15T03:05:12;2.22;;;1.60;;
74344;SDS011;62776;50.518;6.732;2024-02-15T03:08:01;2.88;;;1.73;;
74344;SDS011;62776;50.518;6.732;2024-02-15T03:10:47;2.03;;;1.30;;
74344;SDS011;62776;50.518;6.732;2024-02-15T03:13:33;2.42;;;1.77;;
74344;SDS011;62776;50.518;6.732;2024-02-15T03:16:23;2.10;;;1.50;;
74344;SDS011;62776;50.518;6.732;2024-02-15T03:19:09;2.65;;;2.05;;
74344;SDS011;62776;50.518;6.732;2024-02-15T03:21:57;3.20;;;1.40;;
74344;SDS011;62776;50.518;6.732;2024-02-15T03:24:43;1.73;;;1.50;;
74344;SDS011;62776;50.518;6.732;2024-02-15T03:27:29;1.80;;;1.70;;
74344;SDS011;62776;50.518;6.732;2024-02-15T03:30:20;3.10;;;1.60;;
74344;SDS011;62776;50.518;6.732;2024-02-15T03:33:07;3.25;;;2.20;;
74344;SDS011;62776;50.518;6.732;2024-02-15T03:35:53;2.63;;;1.98;;
74344;SDS011;62776;50.518;6.732;2024-02-15T03:38:50;2.88;;;1.80;;
74344;SDS011;62776;50.518;6.732;2024-02-15T03:41:38;2.30;;;1.63;;
74344;SDS011;62776;50.518;6.732;2024-02-15T03:44:26;2.25;;;1.67;;
74344;SDS011;62776;50.518;6.732;2024-02-15T03:47:12;2.38;;;2.08;;
74344;SDS011;62776;50.518;6.732;2024-02-15T03:49:59;3.42;;;1.45;;
74344;SDS011;62776;50.518;6.732;2024-02-15T03:52:45;3.05;;;1.80;;
74344;SDS011;62776;50.518;6.732;2024-02-15T03:55:32;1.30;;;1.20;;
74344;SDS011;62776;50.518;6.732;2024-02-15T03:58:18;2.70;;;1.70;;
74344;SDS011;62776;50.518;6.732;2024-02-15T04:01:04;4.20;;;2.05;;
74344;SDS011;62776;50.518;6.732;2024-02-15T04:03:54;1.63;;;1.40;;
74344;SDS011;62776;50.518;6.732;2024-02-15T04:06:41;2.75;;;1.40;;
74344;SDS011;62776;50.518;6.732;2024-02-15T04:09:27;4.03;;;1.85;;
74344;SDS011;62776;50.518;6.732;2024-02-15T04:12:14;1.58;;;1.45;;
74344;SDS011;62776;50.518;6.732;2024-02-15T04:15:02;3.78;;;1.50;;
74344;SDS011;62776;50.518;6.732;2024-02-15T04:17:56;3.05;;;1.77;;
74344;SDS011;62776;50.518;6.732;2024-02-15T04:20:43;1.63;;;1.35;;
74344;SDS011;62776;50.518;6.732;2024-02-15T04:23:31;3.63;;;2.28;;
74344;SDS011;62776;50.518;6.732;2024-02-15T04:26:17;2.97;;;1.45;;
74344;SDS011;62776;50.518;6.732;2024-02-15T04:29:04;2.53;;;1.70;;
74344;SDS011;62776;50.518;6.732;2024-02-15T04:31:57;2.67;;;1.95;;
74344;SDS011;62776;50.518;6.732;2024-02-15T04:34:43;2.92;;;1.67;;
74344;SDS011;62776;50.518;6.732;2024-02-15T04:37:31;2.58;;;2.05;;
74344;SDS011;62776;50.518;6.732;2024-02-15T04:40:20;2.55;;;2.05;;
74344;SDS011;62776;50.518;6.732;2024-02-15T04:43:06;4.25;;;1.58;;
74344;SDS011;62776;50.518;6.732;2024-02-15T04:45:53;1.67;;;1.50;;
74344;SDS011;62776;50.518;6.732;2024-02-15T04:48:41;1.45;;;1.35;;
74344;SDS011;62776;50.518;6.732;2024-02-15T04:51:28;3.58;;;1.92;;
74344;SDS011;62776;50.518;6.732;2024-02-15T04:54:17;2.80;;;1.45;;
74344;SDS011;62776;50.518;6.732;2024-02-15T04:57:03;2.05;;;1.80;;
74344;SDS011;62776;50.518;6.732;2024-02-15T04:59:51;2.55;;;1.63;;
74344;SDS011;62776;50.518;6.732;2024-02-15T05:02:38;2.53;;;1.60;;
74344;SDS011;62776;50.518;6.732;2024-02-15T05:05:25;3.97;;;1.63;;
74344;SDS011;62776;50.518;6.732;2024-02-15T05:08:12;4.15;;;1.70;;
74344;SDS011;62776;50.518;6.732;2024-02-15T05:10:59;3.03;;;2.13;;
74344;SDS011;62776;50.518;6.732;2024-02-15T05:13:47;2.50;;;1.60;;
74344;SDS011;62776;50.518;6.732;2024-02-15T05:16:38;3.60;;;1.75;;
74344;SDS011;62776;50.518;6.732;2024-02-15T05:19:27;4.22;;;2.20;;
74344;SDS011;62776;50.518;6.732;2024-02-15T05:22:15;2.20;;;2.00;;
74344;SDS011;62776;50.518;6.732;2024-02-15T05:25:03;2.20;;;1.60;;
74344;SDS011;62776;50.518;6.732;2024-02-15T05:27:53;2.15;;;1.95;;
74344;SDS011;62776;50.518;6.732;2024-02-15T05:30:39;2.13;;;1.42;;
74344;SDS011;62776;50.518;6.732;2024-02-15T05:33:28;2.63;;;1.52;;
74344;SDS011;62776;50.518;6.732;2024-02-15T05:36:18;2.08;;;1.25;;
74344;SDS011;62776;50.518;6.732;2024-02-15T05:39:05;2.42;;;1.67;;
74344;SDS011;62776;50.518;6.732;2024-02-15T05:41:52;2.13;;;1.65;;
74344;SDS011;62776;50.518;6.732;2024-02-15T05:44:38;3.78;;;1.60;;
74344;SDS011;62776;50.518;6.732;2024-02-15T05:47:27;1.38;;;1.27;;
74344;SDS011;62776;50.518;6.732;2024-02-15T05:50:14;1.52;;;1.40;;
74344;SDS011;62776;50.518;6.732;2024-02-15T05:53:00;2.05;;;1.85;;
74344;SDS011;62776;50.518;6.732;2024-02-15T05:55:49;2.42;;;1.40;;
74344;SDS011;62776;50.518;6.732;2024-02-15T05:58:35;2.35;;;1.83;;
74344;SDS011;62776;50.518;6.732;2024-02-15T06:01:21;5.22;;;2.22;;
74344;SDS011;62776;50.518;6.732;2024-02-15T06:04:09;2.20;;;1.67;;
74344;SDS011;62776;50.518;6.732;2024-02-15T06:06:57;3.17;;;1.98;;
74344;SDS011;62776;50.518;6.732;2024-02-15T06:09:48;4.03;;;2.25;;
74344;SDS011;62776;50.518;6.732;2024-02-15T06:15:41;2.05;;;1.50;;
74344;SDS011;62776;50.518;6.732;2024-02-15T06:18:28;1.60;;;1.48;;
74344;SDS011;62776;50.518;6.732;2024-02-15T06:21:16;3.33;;;1.42;;
74344;SDS011;62776;50.518;6.732;2024-02-15T06:24:05;3.08;;;2.15;;
74344;SDS011;62776;50.518;6.732;2024-02-15T06:26:51;1.88;;;1.48;;
74344;SDS011;62776;50.518;6.732;2024-02-15T06:32:50;1.98;;;1.27;;
74344;SDS011;62776;50.518;6.732;2024-02-15T06:35:55;1.70;;;1.60;;
74344;SDS011;62776;50.518;6.732;2024-02-15T06:39:00;1.23;;;1.10;;
74344;SDS011;62776;50.518;6.732;2024-02-15T06:42:05;2.33;;;1.42;;
74344;SDS011;62776;50.518;6.732;2024-02-15T06:44:52;3.03;;;1.98;;
74344;SDS011;62776;50.518;6.732;2024-02-15T06:47:42;1.10;;;1.00;;
74344;SDS011;62776;50.518;6.732;2024-02-15T06:50:29;1.90;;;1.48;;
74344;SDS011;62776;50.518;6.732;2024-02-15T06:53:20;1.60;;;1.50;;
74344;SDS011;62776;50.518;6.732;2024-02-15T06:56:10;1.73;;;1.42;;
74344;SDS011;62776;50.518;6.732;2024-02-15T06:58:56;1.33;;;1.23;;
74344;SDS011;62776;50.518;6.732;2024-02-15T07:01:43;2.95;;;2.67;;
74344;SDS011;62776;50.518;6.732;2024-02-15T07:04:29;2.60;;;1.90;;
74344;SDS011;62776;50.518;6.732;2024-02-15T07:07:17;1.48;;;1.38;;
74344;SDS011;62776;50.518;6.732;2024-02-15T07:10:05;1.75;;;1.13;;
74344;SDS011;62776;50.518;6.732;2024-02-15T07:12:52;2.20;;;1.55;;
74344;SDS011;62776;50.518;6.732;2024-02-15T07:15:41;1.65;;;1.27;;
74344;SDS011;62776;50.518;6.732;2024-02-15T07:18:29;2.72;;;1.27;;
74344;SDS011;62776;50.518;6.732;2024-02-15T07:21:16;2.60;;;1.67;;
74344;SDS011;62776;50.518;6.732;2024-02-15T07:24:06;1.65;;;1.15;;
74344;SDS011;62776;50.518;6.732;2024-02-15T07:26:52;2.00;;;1.10;;
74344;SDS011;62776;50.518;6.732;2024-02-15T07:29:40;2.03;;;1.88;;
74344;SDS011;62776;50.518;6.732;2024-02-15T07:32:26;1.48;;;1.17;;
74344;SDS011;62776;50.518;6.732;2024-02-15T07:35:13;1.50;;;1.40;;
74344;SDS011;62776;50.518;6.732;2024-02-15T07:38:04;1.73;;;1.10;;
74344;SDS011;62776;50.518;6.732;2024-02-15T07:40:50;3.58;;;1.77;;
74344;SDS011;62776;50.518;6.732;2024-02-15T07:43:37;1.35;;;1.25;;
74344;SDS011;62776;50.518;6.732;2024-02-15T07:46:24;2.20;;;1.40;;
74344;SDS011;62776;50.518;6.732;2024-02-15T07:49:11;1.40;;;1.10;;
74344;SDS011;62776;50.518;6.732;2024-02-15T07:51:58;1.40;;;1.30;;
74344;SDS011;62776;50.518;6.732;2024-02-15T07:54:45;1.70;;;1.60;;
74344;SDS011;62776;50.518;6.732;2024-02-15T07:57:31;2.05;;;1.80;;
74344;SDS011;62776;50.518;6.732;2024-02-15T08:00:19;2.05;;;1.38;;
74344;SDS011;62776;50.518;6.732;2024-02-15T08:03:05;3.40;;;2.00;;
74344;SDS011;62776;50.518;6.732;2024-02-15T08:05:52;3.05;;;2.30;;
74344;SDS011;62776;50.518;6.732;2024-02-15T08:08:39;2.38;;;2.00;;
74344;SDS011;62776;50.518;6.732;2024-02-15T08:11:26;1.55;;;1.42;;
74344;SDS011;62776;50.518;6.732;2024-02-15T08:14:12;3.40;;;1.83;;
74344;SDS011;62776;50.518;6.732;2024-02-15T08:17:00;2.45;;;1.55;;
74344;SDS011;62776;50.518;6.732;2024-02-15T08:19:47;4.32;;;1.40;;
74344;SDS011;62776;50.518;6.732;2024-02-15T08:22:33;2.10;;;1.50;;
74344;SDS011;62776;50.518;6.732;2024-02-15T08:25:20;2.03;;;1.77;;
74344;SDS011;62776;50.518;6.732;2024-02-15T08:28:06;1.63;;;1.20;;
74344;SDS011;62776;50.518;6.732;2024-02-15T08:30:57;1.77;;;1.27;;
74344;SDS011;62776;50.518;6.732;2024-02-15T08:33:43;1.02;;;0.93;;
74344;SDS011;62776;50.518;6.732;2024-02-15T08:36:34;1.52;;;1.05;;
74344;SDS011;62776;50.518;6.732;2024-02-15T08:39:20;2.95;;;1.65;;
74344;SDS011;62776;50.518;6.732;2024-02-15T08:42:07;2.05;;;1.85;;
74344;SDS011;62776;50.518;6.732;2024-02-15T08:44:53;2.03;;;1.55;;
74344;SDS011;62776;50.518;6.732;2024-02-15T08:47:41;1.63;;;1.13;;
74344;SDS011;62776;50.518;6.732;2024-02-15T08:50:29;1.70;;;1.60;;
74344;SDS011;62776;50.518;6.732;2024-02-15T08:53:16;1.70;;;1.10;;
74344;SDS011;62776;50.518;6.732;2024-02-15T08:56:06;3.10;;;1.10;;
74344;SDS011;62776;50.518;6.732;2024-02-15T08:58:55;2.95;;;1.20;;
74344;SDS011;62776;50.518;6.732;2024-02-15T09:01:42;1.83;;;1.17;;
74344;SDS011;62776;50.518;6.732;2024-02-15T09:04:31;1.45;;;1.35;;
74344;SDS011;62776;50.518;6.732;2024-02-15T09:07:19;1.85;;;1.45;;
74344;SDS011;62776;50.518;6.732;2024-02-15T09:10:06;1.52;;;1.02;;
74344;SDS011;62776;50.518;6.732;2024-02-15T09:12:54;1.25;;;1.05;;
74344;SDS011;62776;50.518;6.732;2024-02-15T09:15:41;1.58;;;0.82;;
74344;SDS011;62776;50.518;6.732;2024-02-15T09:18:27;0.90;;;0.90;;
74344;SDS011;62776;50.518;6.732;2024-02-15T09:21:13;0.95;;;0.93;;
74344;SDS011;62776;50.518;6.732;2024-02-15T09:24:00;1.48;;;1.10;;
74344;SDS011;62776;50.518;6.732;2024-02-15T09:26:47;0.77;;;0.77;;
74344;SDS011;62776;50.518;6.732;2024-02-15T09:29:33;1.25;;;0.90;;
74344;SDS011;62776;50.518;6.732;2024-02-15T09:32:20;1.38;;;1.27;;
74344;SDS011;62776;50.518;6.732;2024-02-15T09:35:07;3.80;;;1.00;;
74344;SDS011;62776;50.518;6.732;2024-02-15T09:37:54;4.15;;;1.00;;
74344;SDS011;62776;50.518;6.732;2024-02-15T09:40:41;1.45;;;0.80;;
74344;SDS011;62776;50.518;6.732;2024-02-15T09:43:28;1.30;;;0.82;;
74344;SDS011;62776;50.518;6.732;2024-02-15T09:46:14;1.50;;;1.00;;
74344;SDS011;62776;50.518;6.732;2024-02-15T09:49:03;1.35;;;0.82;;
74344;SDS011;62776;50.518;6.732;2024-02-15T09:51:49;1.10;;;0.95;;
74344;SDS011;62776;50.518;6.732;2024-02-15T09:54:41;1.45;;;1.05;;
74344;SDS011;62776;50.518;6.732;2024-02-15T09:57:29;1.88;;;1.00;;
74344;SDS011;62776;50.518;6.732;2024-02-15T10:00:20;1.48;;;0.90;;
74344;SDS011;62776;50.518;6.732;2024-02-15T10:03:06;3.92;;;1.40;;
74344;SDS011;62776;50.518;6.732;2024-02-15T10:05:53;1.10;;;0.73;;
74344;SDS011;62776;50.518;6.732;2024-02-15T10:08:40;2.90;;;1.10;;
74344;SDS011;62776;50.518;6.732;2024-02-15T10:11:28;2.60;;;1.00;;
74344;SDS011;62776;50.518;6.732;2024-02-15T10:14:14;1.58;;;0.88;;
74344;SDS011;62776;50.518;6.732;2024-02-15T10:17:05;1.08;;;0.98;;
74344;SDS011;62776;50.518;6.732;2024-02-15T10:20:03;1.10;;;1.00;;
74344;SDS011;62776;50.518;6.732;2024-02-15T10:22:52;0.80;;;0.80;;
74344;SDS011;62776;50.518;6.732;2024-02-15T10:25:54;0.68;;;0.68;;
74344;SDS011;62776;50.518;6.732;2024-02-15T10:28:41;1.75;;;1.00;;
74344;SDS011;62776;50.518;6.732;2024-02-15T10:31:27;0.60;;;0.60;;
74344;SDS011;62776;50.518;6.732;2024-02-15T10:34:16;1.00;;;0.90;;
74344;SDS011;62776;50.518;6.732;2024-02-15T10:37:12;3.13;;;1.20;;
74344;SDS011;62776;50.518;6.732;2024-02-15T10:40:05;0.63;;;0.63;;
74344;SDS011;62776;50.518;6.732;2024-02-15T10:42:54;1.00;;;0.75;;
74344;SDS011;62776;50.518;6.732;2024-02-15T10:45:44;1.45;;;0.80;;
74344;SDS011;62776;50.518;6.732;2024-02-15T10:48:30;0.95;;;0.60;;
74344;SDS011;62776;50.518;6.732;2024-02-15T10:51:20;0.65;;;0.65;;
74344;SDS011;62776;50.518;6.732;2024-02-15T10:54:06;1.05;;;0.70;;
74344;SDS011;62776;50.518;6.732;2024-02-15T10:56:59;1.20;;;0.85;;
74344;SDS011;62776;50.518;6.732;2024-02-15T10:59:56;1.20;;;1.10;;
74344;SDS011;62776;50.518;6.732;2024-02-15T11:03:00;3.08;;;1.10;;
74344;SDS011;62776;50.518;6.732;2024-02-15T11:05:47;1.17;;;0.80;;
74344;SDS011;62776;50.518;6.732;2024-02-15T11:08:34;0.85;;;0.77;;
74344;SDS011;62776;50.518;6.732;2024-02-15T11:11:22;0.95;;;0.82;;
74344;SDS011;62776;50.518;6.732;2024-02-15T11:14:28;1.38;;;0.90;;
74344;SDS011;62776;50.518;6.732;2024-02-15T11:23:24;0.77;;;0.70;;
74344;SDS011;62776;50.518;6.732;2024-02-15T11:32:41;1.13;;;0.90;;
74344;SDS011;62776;50.518;6.732;2024-02-15T11:35:29;0.90;;;0.90;;
74344;SDS011;62776;50.518;6.732;2024-02-15T11:38:27;0.93;;;0.85;;
74344;SDS011;62776;50.518;6.732;2024-02-15T11:41:19;0.60;;;0.60;;
74344;SDS011;62776;50.518;6.732;2024-02-15T11:44:07;0.80;;;0.77;;
74344;SDS011;62776;50.518;6.732;2024-02-15T11:46:54;0.88;;;0.77;;
74344;SDS011;62776;50.518;6.732;2024-02-15T11:49:45;0.82;;;0.82;;
74344;SDS011;62776;50.518;6.732;2024-02-15T11:52:32;1.52;;;1.10;;
74344;SDS011;62776;50.518;6.732;2024-02-15T11:55:19;1.00;;;0.88;;
74344;SDS011;62776;50.518;6.732;2024-02-15T11:58:07;1.35;;;1.23;;
74344;SDS011;62776;50.518;6.732;2024-02-15T12:00:58;1.00;;;0.77;;
74344;SDS011;62776;50.518;6.732;2024-02-15T12:04:06;1.02;;;0.95;;
74344;SDS011;62776;50.518;6.732;2024-02-15T12:07:11;1.13;;;1.02;;
74344;SDS011;62776;50.518;6.732;2024-02-15T12:10:18;3.83;;;0.57;;
74344;SDS011;62776;50.518;6.732;2024-02-15T12:13:24;1.65;;;0.95;;
74344;SDS011;62776;50.518;6.732;2024-02-15T12:16:30;1.45;;;1.08;;
74344;SDS011;62776;50.518;6.732;2024-02-15T12:19:35;2.20;;;0.70;;
74344;SDS011;62776;50.518;6.732;2024-02-15T12:22:28;1.05;;;0.95;;
74344;SDS011;62776;50.518;6.732;2024-02-15T12:25:33;2.42;;;0.80;;
74344;SDS011;62776;50.518;6.732;2024-02-15T12:28:20;0.73;;;0.73;;
74344;SDS011;62776;50.518;6.732;2024-02-15T12:31:09;1.05;;;1.00;;
74344;SDS011;62776;50.518;6.732;2024-02-15T12:33:59;0.77;;;0.77;;
74344;SDS011;62776;50.518;6.732;2024-02-15T12:36:46;0.60;;;0.60;;
74344;SDS011;62776;50.518;6.732;2024-02-15T12:39:34;1.00;;;0.93;;
74344;SDS011;62776;50.518;6.732;2024-02-15T12:42:23;0.90;;;0.90;;
74344;SDS011;62776;50.518;6.732;2024-02-15T12:45:17;1.10;;;0.90;;
74344;SDS011;62776;50.518;6.732;2024-02-15T12:48:05;1.60;;;1.08;;
74344;SDS011;62776;50.518;6.732;2024-02-15T12:50:53;1.27;;;1.00;;
74344;SDS011;62776;50.518;6.732;2024-02-15T12:53:40;2.05;;;0.80;;
74344;SDS011;62776;50.518;6.732;2024-02-15T12:56:29;1.13;;;0.68;;
74344;SDS011;62776;50.518;6.732;2024-02-15T12:59:16;1.23;;;0.77;;
74344;SDS011;62776;50.518;6.732;2024-02-15T13:02:04;1.45;;;1.00;;
74344;SDS011;62776;50.518;6.732;2024-02-15T13:04:50;1.83;;;0.98;;
74344;SDS011;62776;50.518;6.732;2024-02-15T13:07:42;1.08;;;0.85;;
74344;SDS011;62776;50.518;6.732;2024-02-15T13:10:29;1.10;;;1.00;;
74344;SDS011;62776;50.518;6.732;2024-02-15T13:13:17;1.10;;;1.00;;
74344;SDS011;62776;50.518;6.732;2024-02-15T13:16:03;1.10;;;0.70;;
74344;SDS011;62776;50.518;6.732;2024-02-15T13:18:51;0.70;;;0.70;;
74344;SDS011;62776;50.518;6.732;2024-02-15T13:21:37;0.70;;;0.65;;
74344;SDS011;62776;50.518;6.732;2024-02-15T13:24:23;1.95;;;0.77;;
74344;SDS011;62776;50.518;6.732;2024-02-15T13:27:12;0.80;;;0.80;;
74344;SDS011;62776;50.518;6.732;2024-02-15T13:30:02;0.80;;;0.80;;
74344;SDS011;62776;50.518;6.732;2024-02-15T13:32:55;1.65;;;1.00;;
74344;SDS011;62776;50.518;6.732;2024-02-15T13:35:41;2.50;;;1.33;;
74344;SDS011;62776;50.518;6.732;2024-02-15T13:38:27;2.08;;;1.02;;
74344;SDS011;62776;50.518;6.732;2024-02-15T13:41:14;1.15;;;1.08;;
74344;SDS011;62776;50.518;6.732;2024-02-15T13:44:00;1.27;;;1.17;;
74344;SDS011;62776;50.518;6.732;2024-02-15T13:46:47;2.35;;;1.83;;
74344;SDS011;62776;50.518;6.732;2024-02-15T13:49:35;2.30;;;1.48;;
74344;SDS011;62776;50.518;6.732;2024-02-15T13:52:22;1.65;;;1.38;;
74344;SDS011;62776;50.518;6.732;2024-02-15T13:55:16;0.88;;;0.82;;
74344;SDS011;62776;50.518;6.732;2024-02-15T13:58:03;1.55;;;1.05;;
74344;SDS011;62776;50.518;6.732;2024-02-15T14:00:52;0.73;;;0.73;;
74344;SDS011;62776;50.518;6.732;2024-02-15T14:03:39;1.77;;;1.30;;
74344;SDS011;62776;50.518;6.732;2024-02-15T14:06:28;0.80;;;0.70;;
74344;SDS011;62776;50.518;6.732;2024-02-15T14:09:14;0.70;;;0.70;;
74344;SDS011;62776;50.518;6.732;2024-02-15T14:12:03;1.55;;;1.02;;
74344;SDS011;62776;50.518;6.732;2024-02-15T14:14:51;1.00;;;0.90;;
74344;SDS011;62776;50.518;6.732;2024-02-15T14:17:37;1.38;;;0.63;;
74344;SDS011;62776;50.518;6.732;2024-02-15T14:20:23;0.50;;;0.50;;
74344;SDS011;62776;50.518;6.732;2024-02-15T14:23:10;1.38;;;0.85;;
74344;SDS011;62776;50.518;6.732;2024-02-15T14:25:59;1.98;;;1.45;;
74344;SDS011;62776;50.518;6.732;2024-02-15T14:28:46;0.95;;;0.77;;
74344;SDS011;62776;50.518;6.732;2024-02-15T14:31:34;0.90;;;0.90;;
74344;SDS011;62776;50.518;6.732;2024-02-15T14:34:39;1.00;;;0.98;;
74344;SDS011;62776;50.518;6.732;2024-02-15T14:37:26;1.55;;;0.95;;
74344;SDS011;62776;50.518;6.732;2024-02-15T14:40:13;2.80;;;1.00;;
74344;SDS011;62776;50.518;6.732;2024-02-15T14:43:00;0.80;;;0.80;;
74344;SDS011;62776;50.518;6.732;2024-02-15T14:45:47;1.35;;;0.80;;
74344;SDS011;62776;50.518;6.732;2024-02-15T14:48:34;0.70;;;0.70;;
74344;SDS011;62776;50.518;6.732;2024-02-15T14:51:20;1.60;;;1.05;;
74344;SDS011;62776;50.518;6.732;2024-02-15T14:54:07;2.20;;;0.75;;
74344;SDS011;62776;50.518;6.732;2024-02-15T14:56:54;0.68;;;0.68;;
74344;SDS011;62776;50.518;6.732;2024-02-15T14:59:40;0.63;;;0.63;;
74344;SDS011;62776;50.518;6.732;2024-02-15T15:02:27;3.55;;;0.80;;
74344;SDS011;62776;50.518;6.732;2024-02-15T15:05:14;1.05;;;1.02;;
74344;SDS011;62776;50.518;6.732;2024-02-15T15:08:19;1.15;;;0.77;;
74344;SDS011;62776;50.518;6.732;2024-02-15T15:11:24;0.68;;;0.68;;
74344;SDS011;62776;50.518;6.732;2024-02-15T15:14:29;0.88;;;0.80;;
74344;SDS011;62776;50.518;6.732;2024-02-15T15:17:15;0.80;;;0.80;;
74344;SDS011;62776;50.518;6.732;2024-02-15T15:20:02;1.00;;;0.80;;
74344;SDS011;62776;50.518;6.732;2024-02-15T15:22:53;2.78;;;0.98;;
74344;SDS011;62776;50.518;6.732;2024-02-15T15:25:40;0.70;;;0.70;;
74344;SDS011;62776;50.518;6.732;2024-02-15T15:28:28;0.70;;;0.70;;
74344;SDS011;62776;50.518;6.732;2024-02-15T15:31:15;1.27;;;0.93;;
74344;SDS011;62776;50.518;6.732;2024-02-15T15:34:02;1.17;;;0.82;;
74344;SDS011;62776;50.518;6.732;2024-02-15T15:36:48;0.70;;;0.70;;
74344;SDS011;62776;50.518;6.732;2024-02-15T15:39:39;0.95;;;0.77;;
74344;SDS011;62776;50.518;6.732;2024-02-15T15:42:25;1.35;;;1.10;;
74344;SDS011;62776;50.518;6.732;2024-02-15T15:45:12;0.70;;;0.65;;
74344;SDS011;62776;50.518;6.732;2024-02-15T15:47:59;1.15;;;0.90;;
74344;SDS011;62776;50.518;6.732;2024-02-15T15:50:46;2.55;;;0.80;;
74344;SDS011;62776;50.518;6.732;2024-02-15T15:53:33;2.13;;;1.00;;
74344;SDS011;62776;50.518;6.732;2024-02-15T15:56:20;0.60;;;0.60;;
74344;SDS011;62776;50.518;6.732;2024-02-15T15:59:07;1.25;;;0.70;;
74344;SDS011;62776;50.518;6.732;2024-02-15T16:01:53;2.63;;;1.10;;
74344;SDS011;62776;50.518;6.732;2024-02-15T16:04:44;1.35;;;0.70;;
74344;SDS011;62776;50.518;6.732;2024-02-15T16:07:33;2.72;;;0.80;;
74344;SDS011;62776;50.518;6.732;2024-02-15T16:10:20;0.82;;;0.80;;
74344;SDS011;62776;50.518;6.732;2024-02-15T16:13:09;0.68;;;0.68;;
74344;SDS011;62776;50.518;6.732;2024-02-15T16:15:56;1.35;;;1.25;;
74344;SDS011;62776;50.518;6.732;2024-02-15T16:18:47;6.25;;;0.90;;
74344;SDS011;62776;50.518;6.732;2024-02-15T16:21:34;0.80;;;0.80;;
74344;SDS011;62776;50.518;6.732;2024-02-15T16:24:21;1.10;;;0.98;;
74344;SDS011;62776;50.518;6.732;2024-02-15T16:27:07;1.83;;;0.80;;
74344;SDS011;62776;50.518;6.732;2024-02-15T16:29:54;1.33;;;0.90;;
74344;SDS011;62776;50.518;6.732;2024-02-15T16:32:40;2.25;;;2.05;;
74344;SDS011;62776;50.518;6.732;2024-02-15T16:35:27;1.13;;;1.00;;
74344;SDS011;62776;50.518;6.732;2024-02-15T16:38:13;1.20;;;1.00;;
74344;SDS011;62776;50.518;6.732;2024-02-15T16:41:02;0.90;;;0.90;;
74344;SDS011;62776;50.518;6.732;2024-02-15T16:43:52;4.15;;;2.80;;
74344;SDS011;62776;50.518;6.732;2024-02-15T16:46:46;1.42;;;1.33;;
74344;SDS011;62776;50.518;6.732;2024-02-15T16:49:35;0.90;;;0.90;;
74344;SDS011;62776;50.518;6.732;2024-02-15T16:52:21;1.55;;;1.30;;
74344;SDS011;62776;50.518;6.732;2024-02-15T16:55:09;1.48;;;1.13;;
74344;SDS011;62776;50.518;6.732;2024-02-15T16:57:56;1.48;;;0.80;;
74344;SDS011;62776;50.518;6.732;2024-02-15T17:00:47;0.90;;;0.90;;
74344;SDS011;62776;50.518;6.732;2024-02-15T17:03:36;1.15;;;0.95;;
74344;SDS011;62776;50.518;6.732;2024-02-15T17:06:25;0.80;;;0.80;;
74344;SDS011;62776;50.518;6.732;2024-02-15T17:09:13;1.23;;;0.88;;
74344;SDS011;62776;50.518;6.732;2024-02-15T17:12:05;0.95;;;0.93;;
74344;SDS011;62776;50.518;6.732;2024-02-15T17:14:52;0.70;;;0.70;;